sensor_id;sensor_type;location;lat;lon;timestamp;P1;durP1;ratioP1;P2;durP2;ratioP2
59653;SDS011;66556;52.008;5.432;2023-04-15T00:00:15;8.0;;;3.7;;
59653;SDS011;66556;52.008;5.432;2023-04-15T00:01:52;10.8;;;4.0;;
59653;SDS011;66556;52.008;5.432;2023-04-15T00:03:28;10.3;;;4.1;;
59653;SDS011;66556;52.008;5.432;2023-04-15T00:06:41;12.8;;;4.2;;
59653;SDS011;66556;52.008;5.432;2023-04-15T00:08:17;10.8;;;3.8;;
59653;SDS011;66556;52.008;5.432;2023-04-15T00:09:54;9.1;;;3.9;;
59653;SDS011;66556;52.008;5.432;2023-04-15T00:11:30;8.9;;;4.3;;
59653;SDS011;66556;52.008;5.432;2023-04-15T00:14:42;7.8;;;3.9;;
59653;SDS011;66556;52.008;5.432;2023-04-15T00:16:18;9.9;;;4.1;;
59653;SDS011;66556;52.008;5.432;2023-04-15T00:17:54;9.9;;;4.1;;
59653;SDS011;66556;52.008;5.432;2023-04-15T00:21:07;10.0;;;4.0;;
59653;SDS011;66556;52.008;5.432;2023-04-15T00:22:43;8.71;;;3.9;;
59653;SDS011;66556;52.008;5.432;2023-04-15T00:24:19;8.9;;;4.1;;
59653;SDS011;66556;52.008;5.432;2023-04-15T00:27:31;9.1;;;4.2;;
59653;SDS011;66556;52.008;5.432;2023-04-15T00:29:07;8.2;;;3.9;;
59653;SDS011;66556;52.008;5.432;2023-04-15T00:30:43;10.6;;;4.2;;
59653;SDS011;66556;52.008;5.432;2023-04-15T00:33:57;6.2;;;3.8;;
59653;SDS011;66556;52.008;5.432;2023-04-15T00:35:33;7.2;;;3.8;;
59653;SDS011;66556;52.008;5.432;2023-04-15T00:37:09;9.71;;;4.0;;
59653;SDS011;66556;52.008;5.432;2023-04-15T00:38:45;9.5;;;4.61;;
59653;SDS011;66556;52.008;5.432;2023-04-15T00:41:58;8.0;;;3.7;;
59653;SDS011;66556;52.008;5.432;2023-04-15T00:43:34;9.6;;;4.0;;
59653;SDS011;66556;52.008;5.432;2023-04-15T00:45:11;9.81;;;3.9;;
59653;SDS011;66556;52.008;5.432;2023-04-15T00:48:26;7.6;;;4.0;;
59653;SDS011;66556;52.008;5.432;2023-04-15T00:50:03;8.9;;;3.9;;
59653;SDS011;66556;52.008;5.432;2023-04-15T00:51:40;9.1;;;4.0;;
59653;SDS011;66556;52.008;5.432;2023-04-15T00:54:52;9.1;;;3.8;;
59653;SDS011;66556;52.008;5.432;2023-04-15T00:56:32;9.1;;;3.8;;
59653;SDS011;66556;52.008;5.432;2023-04-15T00:58:11;6.9;;;3.5;;
59653;SDS011;66556;52.008;5.432;2023-04-15T00:59:47;9.4;;;4.2;;
59653;SDS011;66556;52.008;5.432;2023-04-15T01:03:00;8.2;;;3.7;;
59653;SDS011;66556;52.008;5.432;2023-04-15T01:04:36;8.5;;;4.2;;
59653;SDS011;66556;52.008;5.432;2023-04-15T01:06:12;7.6;;;3.9;;
59653;SDS011;66556;52.008;5.432;2023-04-15T01:09:24;9.1;;;4.41;;
59653;SDS011;66556;52.008;5.432;2023-04-15T01:11:01;9.0;;;4.1;;
59653;SDS011;66556;52.008;5.432;2023-04-15T01:12:38;7.2;;;3.9;;
59653;SDS011;66556;52.008;5.432;2023-04-15T01:14:14;10.9;;;4.3;;
59653;SDS011;66556;52.008;5.432;2023-04-15T01:17:27;7.7;;;4.2;;
59653;SDS011;66556;52.008;5.432;2023-04-15T01:19:03;9.21;;;4.3;;
59653;SDS011;66556;52.008;5.432;2023-04-15T01:20:40;8.4;;;3.8;;
59653;SDS011;66556;52.008;5.432;2023-04-15T01:23:53;9.1;;;4.0;;
59653;SDS011;66556;52.008;5.432;2023-04-15T01:25:30;7.6;;;4.1;;
59653;SDS011;66556;52.008;5.432;2023-04-15T01:27:07;9.6;;;4.2;;
59653;SDS011;66556;52.008;5.432;2023-04-15T01:30:19;8.6;;;4.2;;
59653;SDS011;66556;52.008;5.432;2023-04-15T01:31:55;9.5;;;4.7;;
59653;SDS011;66556;52.008;5.432;2023-04-15T01:33:31;8.31;;;4.41;;
59653;SDS011;66556;52.008;5.432;2023-04-15T01:36:43;9.81;;;4.61;;
59653;SDS011;66556;52.008;5.432;2023-04-15T01:38:20;7.7;;;4.1;;
59653;SDS011;66556;52.008;5.432;2023-04-15T01:39:56;7.8;;;4.3;;
59653;SDS011;66556;52.008;5.432;2023-04-15T01:41:32;8.81;;;4.61;;
59653;SDS011;66556;52.008;5.432;2023-04-15T01:44:44;7.9;;;4.61;;
59653;SDS011;66556;52.008;5.432;2023-04-15T01:46:21;10.9;;;4.41;;
59653;SDS011;66556;52.008;5.432;2023-04-15T01:47:57;11.8;;;4.91;;
59653;SDS011;66556;52.008;5.432;2023-04-15T01:51:10;8.1;;;4.91;;
59653;SDS011;66556;52.008;5.432;2023-04-15T01:52:46;7.7;;;4.5;;
59653;SDS011;66556;52.008;5.432;2023-04-15T01:54:22;8.5;;;4.8;;
59653;SDS011;66556;52.008;5.432;2023-04-15T01:57:34;8.9;;;4.91;;
59653;SDS011;66556;52.008;5.432;2023-04-15T01:59:10;7.6;;;5.0;;
59653;SDS011;66556;52.008;5.432;2023-04-15T02:00:46;8.1;;;4.8;;
59653;SDS011;66556;52.008;5.432;2023-04-15T02:02:22;9.71;;;4.91;;
59653;SDS011;66556;52.008;5.432;2023-04-15T02:05:35;10.4;;;5.4;;
59653;SDS011;66556;52.008;5.432;2023-04-15T02:07:11;9.5;;;5.3;;
59653;SDS011;66556;52.008;5.432;2023-04-15T02:08:47;7.8;;;5.0;;
59653;SDS011;66556;52.008;5.432;2023-04-15T02:11:59;10.5;;;5.0;;
59653;SDS011;66556;52.008;5.432;2023-04-15T02:13:35;10.0;;;5.0;;
59653;SDS011;66556;52.008;5.432;2023-04-15T02:15:12;9.5;;;5.4;;
59653;SDS011;66556;52.008;5.432;2023-04-15T02:18:23;7.9;;;5.0;;
59653;SDS011;66556;52.008;5.432;2023-04-15T02:19:59;10.0;;;5.2;;
59653;SDS011;66556;52.008;5.432;2023-04-15T02:21:34;9.6;;;5.0;;
59653;SDS011;66556;52.008;5.432;2023-04-15T02:24:46;9.6;;;5.0;;
59653;SDS011;66556;52.008;5.432;2023-04-15T02:26:21;8.5;;;5.11;;
59653;SDS011;66556;52.008;5.432;2023-04-15T02:27:57;9.21;;;5.3;;
59653;SDS011;66556;52.008;5.432;2023-04-15T02:29:33;9.5;;;5.3;;
59653;SDS011;66556;52.008;5.432;2023-04-15T02:32:44;10.0;;;5.5;;
59653;SDS011;66556;52.008;5.432;2023-04-15T02:34:20;9.81;;;5.2;;
59653;SDS011;66556;52.008;5.432;2023-04-15T02:35:56;9.0;;;5.2;;
59653;SDS011;66556;52.008;5.432;2023-04-15T02:39:11;9.6;;;5.2;;
59653;SDS011;66556;52.008;5.432;2023-04-15T02:40:47;11.3;;;5.6;;
59653;SDS011;66556;52.008;5.432;2023-04-15T02:42:23;8.5;;;5.11;;
59653;SDS011;66556;52.008;5.432;2023-04-15T02:45:35;9.0;;;5.3;;
59653;SDS011;66556;52.008;5.432;2023-04-15T02:47:11;10.7;;;5.7;;
59653;SDS011;66556;52.008;5.432;2023-04-15T02:48:48;10.21;;;5.2;;
59653;SDS011;66556;52.008;5.432;2023-04-15T02:52:01;10.0;;;5.2;;
59653;SDS011;66556;52.008;5.432;2023-04-15T02:53:37;9.5;;;5.5;;
59653;SDS011;66556;52.008;5.432;2023-04-15T02:55:13;9.81;;;5.8;;
59653;SDS011;66556;52.008;5.432;2023-04-15T02:56:49;10.3;;;5.9;;
59653;SDS011;66556;52.008;5.432;2023-04-15T03:00:02;9.4;;;5.6;;
59653;SDS011;66556;52.008;5.432;2023-04-15T03:01:39;10.5;;;6.3;;
59653;SDS011;66556;52.008;5.432;2023-04-15T03:03:15;11.5;;;6.1;;
59653;SDS011;66556;52.008;5.432;2023-04-15T03:06:27;9.81;;;5.7;;
59653;SDS011;66556;52.008;5.432;2023-04-15T03:08:03;9.4;;;5.9;;
59653;SDS011;66556;52.008;5.432;2023-04-15T03:09:39;9.1;;;5.7;;
59653;SDS011;66556;52.008;5.432;2023-04-15T03:12:51;8.9;;;5.8;;
59653;SDS011;66556;52.008;5.432;2023-04-15T03:14:28;8.81;;;5.8;;
59653;SDS011;66556;52.008;5.432;2023-04-15T03:16:04;8.5;;;5.7;;
59653;SDS011;66556;52.008;5.432;2023-04-15T03:17:41;10.21;;;6.2;;
59653;SDS011;66556;52.008;5.432;2023-04-15T03:20:53;11.5;;;6.3;;
59653;SDS011;66556;52.008;5.432;2023-04-15T03:22:29;8.31;;;5.9;;
59653;SDS011;66556;52.008;5.432;2023-04-15T03:24:05;11.0;;;6.3;;
59653;SDS011;66556;52.008;5.432;2023-04-15T03:27:20;9.1;;;6.3;;
59653;SDS011;66556;52.008;5.432;2023-04-15T03:28:56;11.6;;;6.5;;
59653;SDS011;66556;52.008;5.432;2023-04-15T03:30:33;8.81;;;5.9;;
59653;SDS011;66556;52.008;5.432;2023-04-15T03:33:45;9.31;;;6.2;;
59653;SDS011;66556;52.008;5.432;2023-04-15T03:35:21;8.9;;;5.9;;
59653;SDS011;66556;52.008;5.432;2023-04-15T03:36:57;9.21;;;6.3;;
59653;SDS011;66556;52.008;5.432;2023-04-15T03:40:10;9.71;;;6.6;;
59653;SDS011;66556;52.008;5.432;2023-04-15T03:41:47;11.4;;;6.7;;
59653;SDS011;66556;52.008;5.432;2023-04-15T03:43:23;11.5;;;6.7;;
59653;SDS011;66556;52.008;5.432;2023-04-15T03:44:59;10.4;;;7.0;;
59653;SDS011;66556;52.008;5.432;2023-04-15T03:48:12;9.9;;;6.8;;
59653;SDS011;66556;52.008;5.432;2023-04-15T03:49:47;8.71;;;6.5;;
59653;SDS011;66556;52.008;5.432;2023-04-15T03:51:24;10.6;;;6.7;;
59653;SDS011;66556;52.008;5.432;2023-04-15T03:54:36;12.6;;;7.4;;
59653;SDS011;66556;52.008;5.432;2023-04-15T03:56:12;10.8;;;7.1;;
59653;SDS011;66556;52.008;5.432;2023-04-15T03:57:48;10.8;;;7.2;;
59653;SDS011;66556;52.008;5.432;2023-04-15T04:01:00;11.9;;;7.0;;
59653;SDS011;66556;52.008;5.432;2023-04-15T04:02:36;13.2;;;7.9;;
59653;SDS011;66556;52.008;5.432;2023-04-15T04:04:13;10.7;;;7.3;;
59653;SDS011;66556;52.008;5.432;2023-04-15T04:05:49;10.8;;;7.3;;
59653;SDS011;66556;52.008;5.432;2023-04-15T04:09:03;9.4;;;7.1;;
59653;SDS011;66556;52.008;5.432;2023-04-15T04:10:39;11.1;;;7.1;;
59653;SDS011;66556;52.008;5.432;2023-04-15T04:12:15;12.0;;;7.9;;
59653;SDS011;66556;52.008;5.432;2023-04-15T04:15:29;8.9;;;7.6;;
59653;SDS011;66556;52.008;5.432;2023-04-15T04:17:06;13.8;;;7.9;;
59653;SDS011;66556;52.008;5.432;2023-04-15T04:20:19;11.7;;;7.6;;
59653;SDS011;66556;52.008;5.432;2023-04-15T04:21:56;12.0;;;8.4;;
59653;SDS011;66556;52.008;5.432;2023-04-15T04:23:33;10.5;;;7.7;;
59653;SDS011;66556;52.008;5.432;2023-04-15T04:25:09;12.3;;;8.1;;
59653;SDS011;66556;52.008;5.432;2023-04-15T04:28:22;13.9;;;8.31;;
59653;SDS011;66556;52.008;5.432;2023-04-15T04:29:59;15.6;;;8.6;;
59653;SDS011;66556;52.008;5.432;2023-04-15T04:31:36;12.4;;;8.6;;
59653;SDS011;66556;52.008;5.432;2023-04-15T04:33:13;10.7;;;7.9;;
59653;SDS011;66556;52.008;5.432;2023-04-15T04:36:25;11.8;;;8.4;;
59653;SDS011;66556;52.008;5.432;2023-04-15T04:38:01;12.2;;;8.1;;
59653;SDS011;66556;52.008;5.432;2023-04-15T04:41:14;12.2;;;8.1;;
59653;SDS011;66556;52.008;5.432;2023-04-15T04:42:50;13.6;;;8.9;;
59653;SDS011;66556;52.008;5.432;2023-04-15T04:44:27;12.1;;;8.81;;
59653;SDS011;66556;52.008;5.432;2023-04-15T04:46:04;13.5;;;8.81;;
59653;SDS011;66556;52.008;5.432;2023-04-15T04:49:17;12.1;;;9.0;;
59653;SDS011;66556;52.008;5.432;2023-04-15T04:50:53;13.1;;;8.71;;
59653;SDS011;66556;52.008;5.432;2023-04-15T04:52:32;13.8;;;8.81;;
59653;SDS011;66556;52.008;5.432;2023-04-15T04:54:09;13.2;;;9.0;;
59653;SDS011;66556;52.008;5.432;2023-04-15T04:58:59;12.1;;;8.6;;
59653;SDS011;66556;52.008;5.432;2023-04-15T05:00:35;13.9;;;8.5;;
59653;SDS011;66556;52.008;5.432;2023-04-15T05:03:48;14.9;;;9.9;;
59653;SDS011;66556;52.008;5.432;2023-04-15T05:05:25;13.6;;;9.6;;
59653;SDS011;66556;52.008;5.432;2023-04-15T05:07:01;12.8;;;9.4;;
59653;SDS011;66556;52.008;5.432;2023-04-15T05:08:38;14.0;;;9.71;;
59653;SDS011;66556;52.008;5.432;2023-04-15T05:11:51;13.5;;;9.71;;
59653;SDS011;66556;52.008;5.432;2023-04-15T05:13:28;15.7;;;10.1;;
59653;SDS011;66556;52.008;5.432;2023-04-15T05:16:42;15.8;;;9.71;;
59653;SDS011;66556;52.008;5.432;2023-04-15T05:18:19;14.9;;;10.0;;
59653;SDS011;66556;52.008;5.432;2023-04-15T05:21:31;14.8;;;9.6;;
59653;SDS011;66556;52.008;5.432;2023-04-15T05:24:44;14.8;;;9.6;;
59653;SDS011;66556;52.008;5.432;2023-04-15T05:26:20;14.2;;;10.21;;
59653;SDS011;66556;52.008;5.432;2023-04-15T05:27:57;14.8;;;10.5;;
59653;SDS011;66556;52.008;5.432;2023-04-15T05:29:33;14.0;;;10.0;;
59653;SDS011;66556;52.008;5.432;2023-04-15T05:32:45;14.1;;;10.0;;
59653;SDS011;66556;52.008;5.432;2023-04-15T05:34:21;12.1;;;9.6;;
59653;SDS011;66556;52.008;5.432;2023-04-15T05:35:58;14.6;;;9.81;;
59653;SDS011;66556;52.008;5.432;2023-04-15T05:39:11;16.7;;;10.1;;
59653;SDS011;66556;52.008;5.432;2023-04-15T05:40:47;15.3;;;9.5;;
59653;SDS011;66556;52.008;5.432;2023-04-15T05:42:23;14.9;;;10.1;;
59653;SDS011;66556;52.008;5.432;2023-04-15T05:45:36;13.7;;;9.5;;
59653;SDS011;66556;52.008;5.432;2023-04-15T05:47:12;13.7;;;9.71;;
59653;SDS011;66556;52.008;5.432;2023-04-15T05:48:48;12.1;;;9.4;;
59653;SDS011;66556;52.008;5.432;2023-04-15T05:50:24;14.5;;;9.71;;
59653;SDS011;66556;52.008;5.432;2023-04-15T05:53:37;14.5;;;9.81;;
59653;SDS011;66556;52.008;5.432;2023-04-15T05:55:13;14.3;;;10.0;;
59653;SDS011;66556;52.008;5.432;2023-04-15T05:56:49;15.4;;;10.1;;
59653;SDS011;66556;52.008;5.432;2023-04-15T06:00:01;13.4;;;10.0;;
59653;SDS011;66556;52.008;5.432;2023-04-15T06:01:38;16.0;;;10.21;;
59653;SDS011;66556;52.008;5.432;2023-04-15T06:03:15;11.9;;;9.81;;
59653;SDS011;66556;52.008;5.432;2023-04-15T06:06:27;13.8;;;10.1;;
59653;SDS011;66556;52.008;5.432;2023-04-15T06:08:04;14.7;;;10.0;;
59653;SDS011;66556;52.008;5.432;2023-04-15T06:09:40;13.9;;;10.3;;
59653;SDS011;66556;52.008;5.432;2023-04-15T06:11:17;11.5;;;9.81;;
59653;SDS011;66556;52.008;5.432;2023-04-15T06:14:29;12.4;;;9.5;;
59653;SDS011;66556;52.008;5.432;2023-04-15T06:16:05;12.8;;;9.71;;
59653;SDS011;66556;52.008;5.432;2023-04-15T06:17:41;13.5;;;9.71;;
59653;SDS011;66556;52.008;5.432;2023-04-15T06:20:54;12.0;;;9.6;;
59653;SDS011;66556;52.008;5.432;2023-04-15T06:22:30;12.0;;;10.1;;
59653;SDS011;66556;52.008;5.432;2023-04-15T06:24:06;15.9;;;10.6;;
59653;SDS011;66556;52.008;5.432;2023-04-15T06:27:18;13.4;;;9.71;;
59653;SDS011;66556;52.008;5.432;2023-04-15T06:28:54;11.2;;;9.81;;
59653;SDS011;66556;52.008;5.432;2023-04-15T06:30:31;13.1;;;9.5;;
59653;SDS011;66556;52.008;5.432;2023-04-15T06:33:44;17.91;;;10.21;;
59653;SDS011;66556;52.008;5.432;2023-04-15T06:35:20;17.91;;;10.21;;
59653;SDS011;66556;52.008;5.432;2023-04-15T06:36:56;24.0;;;10.5;;
59653;SDS011;66556;52.008;5.432;2023-04-15T06:38:32;19.91;;;9.9;;
59653;SDS011;66556;52.008;5.432;2023-04-15T06:41:45;19.2;;;10.1;;
59653;SDS011;66556;52.008;5.432;2023-04-15T06:43:21;20.7;;;10.1;;
59653;SDS011;66556;52.008;5.432;2023-04-15T06:44:57;17.11;;;9.31;;
59653;SDS011;66556;52.008;5.432;2023-04-15T06:48:10;13.5;;;9.4;;
59653;SDS011;66556;52.008;5.432;2023-04-15T06:49:46;16.3;;;8.71;;
59653;SDS011;66556;52.008;5.432;2023-04-15T06:51:22;14.3;;;9.4;;
59653;SDS011;66556;52.008;5.432;2023-04-15T06:54:34;12.3;;;9.31;;
59653;SDS011;66556;52.008;5.432;2023-04-15T06:56:10;14.1;;;9.31;;
59653;SDS011;66556;52.008;5.432;2023-04-15T06:57:47;12.9;;;8.71;;
59653;SDS011;66556;52.008;5.432;2023-04-15T07:00:59;14.6;;;9.1;;
59653;SDS011;66556;52.008;5.432;2023-04-15T07:02:35;13.4;;;8.9;;
59653;SDS011;66556;52.008;5.432;2023-04-15T07:04:11;13.3;;;8.5;;
59653;SDS011;66556;52.008;5.432;2023-04-15T07:05:48;12.5;;;9.1;;
59653;SDS011;66556;52.008;5.432;2023-04-15T07:09:00;14.8;;;8.5;;
59653;SDS011;66556;52.008;5.432;2023-04-15T07:10:36;12.9;;;8.81;;
59653;SDS011;66556;52.008;5.432;2023-04-15T07:12:12;14.8;;;8.6;;
59653;SDS011;66556;52.008;5.432;2023-04-15T07:15:25;11.3;;;8.9;;
59653;SDS011;66556;52.008;5.432;2023-04-15T07:17:01;13.8;;;8.6;;
59653;SDS011;66556;52.008;5.432;2023-04-15T07:18:37;12.8;;;8.81;;
59653;SDS011;66556;52.008;5.432;2023-04-15T07:21:50;12.6;;;9.1;;
59653;SDS011;66556;52.008;5.432;2023-04-15T07:23:26;13.7;;;8.6;;
59653;SDS011;66556;52.008;5.432;2023-04-15T07:25:03;10.5;;;8.71;;
59653;SDS011;66556;52.008;5.432;2023-04-15T07:26:40;11.7;;;8.4;;
59653;SDS011;66556;52.008;5.432;2023-04-15T07:29:52;11.2;;;8.5;;
59653;SDS011;66556;52.008;5.432;2023-04-15T07:31:28;12.8;;;8.6;;
59653;SDS011;66556;52.008;5.432;2023-04-15T07:33:04;10.6;;;8.4;;
59653;SDS011;66556;52.008;5.432;2023-04-15T07:36:17;11.7;;;8.4;;
59653;SDS011;66556;52.008;5.432;2023-04-15T07:37:53;11.7;;;8.71;;
59653;SDS011;66556;52.008;5.432;2023-04-15T07:39:29;12.4;;;9.4;;
59653;SDS011;66556;52.008;5.432;2023-04-15T07:42:41;10.3;;;8.71;;
59653;SDS011;66556;52.008;5.432;2023-04-15T07:44:20;13.0;;;8.6;;
59653;SDS011;66556;52.008;5.432;2023-04-15T07:45:56;11.0;;;8.71;;
59653;SDS011;66556;52.008;5.432;2023-04-15T07:47:32;9.6;;;7.8;;
59653;SDS011;66556;52.008;5.432;2023-04-15T07:50:44;10.6;;;8.31;;
59653;SDS011;66556;52.008;5.432;2023-04-15T07:52:21;10.4;;;7.7;;
59653;SDS011;66556;52.008;5.432;2023-04-15T07:53:57;9.21;;;7.4;;
59653;SDS011;66556;52.008;5.432;2023-04-15T07:57:09;9.31;;;7.0;;
59653;SDS011;66556;52.008;5.432;2023-04-15T07:58:45;12.7;;;7.6;;
59653;SDS011;66556;52.008;5.432;2023-04-15T08:00:22;9.6;;;7.4;;
59653;SDS011;66556;52.008;5.432;2023-04-15T08:03:34;9.5;;;8.1;;
59653;SDS011;66556;52.008;5.432;2023-04-15T08:05:10;9.4;;;7.5;;
59653;SDS011;66556;52.008;5.432;2023-04-15T08:06:47;9.9;;;7.9;;
59653;SDS011;66556;52.008;5.432;2023-04-15T08:10:00;10.6;;;6.8;;
59653;SDS011;66556;52.008;5.432;2023-04-15T08:11:36;9.31;;;7.2;;
59653;SDS011;66556;52.008;5.432;2023-04-15T08:13:12;10.3;;;7.3;;
59653;SDS011;66556;52.008;5.432;2023-04-15T08:14:48;13.4;;;6.7;;
59653;SDS011;66556;52.008;5.432;2023-04-15T08:18:01;8.71;;;7.0;;
59653;SDS011;66556;52.008;5.432;2023-04-15T08:19:37;12.8;;;7.4;;
59653;SDS011;66556;52.008;5.432;2023-04-15T08:21:15;8.2;;;6.0;;
59653;SDS011;66556;52.008;5.432;2023-04-15T08:24:28;6.8;;;5.6;;
59653;SDS011;66556;52.008;5.432;2023-04-15T08:26:06;9.21;;;5.5;;
59653;SDS011;66556;52.008;5.432;2023-04-15T08:27:43;9.0;;;5.5;;
59653;SDS011;66556;52.008;5.432;2023-04-15T08:30:56;8.6;;;5.8;;
59653;SDS011;66556;52.008;5.432;2023-04-15T08:32:32;7.9;;;5.6;;
59653;SDS011;66556;52.008;5.432;2023-04-15T08:34:08;7.8;;;5.6;;
59653;SDS011;66556;52.008;5.432;2023-04-15T08:35:44;6.3;;;5.11;;
59653;SDS011;66556;52.008;5.432;2023-04-15T08:38:58;8.31;;;5.6;;
59653;SDS011;66556;52.008;5.432;2023-04-15T08:40:34;7.5;;;5.3;;
59653;SDS011;66556;52.008;5.432;2023-04-15T08:42:18;7.9;;;5.7;;
59653;SDS011;66556;52.008;5.432;2023-04-15T08:44:02;10.0;;;5.0;;
59653;SDS011;66556;52.008;5.432;2023-04-15T08:47:19;7.4;;;5.0;;
59653;SDS011;66556;52.008;5.432;2023-04-15T08:48:57;8.71;;;5.2;;
59653;SDS011;66556;52.008;5.432;2023-04-15T08:50:34;6.1;;;4.7;;
59653;SDS011;66556;52.008;5.432;2023-04-15T08:53:46;5.2;;;4.41;;
59653;SDS011;66556;52.008;5.432;2023-04-15T08:55:22;6.3;;;3.8;;
59653;SDS011;66556;52.008;5.432;2023-04-15T08:57:02;6.4;;;3.2;;
59653;SDS011;66556;52.008;5.432;2023-04-15T08:58:39;3.6;;;3.2;;
59653;SDS011;66556;52.008;5.432;2023-04-15T09:01:52;4.61;;;3.2;;
59653;SDS011;66556;52.008;5.432;2023-04-15T09:03:29;6.4;;;3.2;;
59653;SDS011;66556;52.008;5.432;2023-04-15T09:05:06;5.8;;;3.5;;
59653;SDS011;66556;52.008;5.432;2023-04-15T09:08:20;3.9;;;3.4;;
59653;SDS011;66556;52.008;5.432;2023-04-15T09:09:56;4.5;;;3.3;;
59653;SDS011;66556;52.008;5.432;2023-04-15T09:11:32;5.2;;;3.2;;
59653;SDS011;66556;52.008;5.432;2023-04-15T09:14:46;6.2;;;3.2;;
59653;SDS011;66556;52.008;5.432;2023-04-15T09:16:23;4.61;;;3.2;;
59653;SDS011;66556;52.008;5.432;2023-04-15T09:18:00;5.3;;;3.2;;
59653;SDS011;66556;52.008;5.432;2023-04-15T09:19:36;5.3;;;3.4;;
59653;SDS011;66556;52.008;5.432;2023-04-15T09:22:50;6.8;;;3.1;;
59653;SDS011;66556;52.008;5.432;2023-04-15T09:24:32;4.8;;;2.7;;
59653;SDS011;66556;52.008;5.432;2023-04-15T09:26:11;3.6;;;2.8;;
59653;SDS011;66556;52.008;5.432;2023-04-15T09:29:29;4.2;;;2.7;;
59653;SDS011;66556;52.008;5.432;2023-04-15T09:31:05;3.4;;;2.5;;
59653;SDS011;66556;52.008;5.432;2023-04-15T09:32:47;3.9;;;2.7;;
59653;SDS011;66556;52.008;5.432;2023-04-15T09:34:27;6.9;;;3.1;;
59653;SDS011;66556;52.008;5.432;2023-04-15T09:37:48;3.6;;;2.5;;
59653;SDS011;66556;52.008;5.432;2023-04-15T09:39:25;8.1;;;2.9;;
59653;SDS011;66556;52.008;5.432;2023-04-15T09:41:01;18.61;;;3.0;;
59653;SDS011;66556;52.008;5.432;2023-04-15T09:42:40;4.91;;;3.3;;
59653;SDS011;66556;52.008;5.432;2023-04-15T09:46:06;5.4;;;3.3;;
59653;SDS011;66556;52.008;5.432;2023-04-15T09:47:42;4.91;;;3.5;;
59653;SDS011;66556;52.008;5.432;2023-04-15T09:49:18;5.0;;;3.8;;
59653;SDS011;66556;52.008;5.432;2023-04-15T09:52:39;4.61;;;3.5;;
59653;SDS011;66556;52.008;5.432;2023-04-15T09:54:17;6.4;;;3.9;;
59653;SDS011;66556;52.008;5.432;2023-04-15T09:55:54;6.2;;;3.8;;
59653;SDS011;66556;52.008;5.432;2023-04-15T09:57:32;10.0;;;4.1;;
59653;SDS011;66556;52.008;5.432;2023-04-15T10:00:46;6.9;;;4.2;;
59653;SDS011;66556;52.008;5.432;2023-04-15T10:02:23;4.61;;;3.6;;
59653;SDS011;66556;52.008;5.432;2023-04-15T10:04:02;5.8;;;3.9;;
59653;SDS011;66556;52.008;5.432;2023-04-15T10:05:40;4.7;;;3.7;;
59653;SDS011;66556;52.008;5.432;2023-04-15T10:08:55;4.91;;;3.5;;
59653;SDS011;66556;52.008;5.432;2023-04-15T10:10:32;3.9;;;3.4;;
59653;SDS011;66556;52.008;5.432;2023-04-15T10:12:08;6.3;;;3.5;;
59653;SDS011;66556;52.008;5.432;2023-04-15T10:15:24;4.3;;;3.0;;
59653;SDS011;66556;52.008;5.432;2023-04-15T10:17:03;4.8;;;3.1;;
59653;SDS011;66556;52.008;5.432;2023-04-15T10:18:41;4.1;;;3.3;;
59653;SDS011;66556;52.008;5.432;2023-04-15T10:20:19;4.3;;;3.2;;
59653;SDS011;66556;52.008;5.432;2023-04-15T10:23:34;3.7;;;2.9;;
59653;SDS011;66556;52.008;5.432;2023-04-15T10:25:10;5.5;;;2.7;;
59653;SDS011;66556;52.008;5.432;2023-04-15T10:26:47;4.5;;;3.6;;
59653;SDS011;66556;52.008;5.432;2023-04-15T10:30:02;6.2;;;3.7;;
59653;SDS011;66556;52.008;5.432;2023-04-15T10:31:39;8.1;;;4.0;;
59653;SDS011;66556;52.008;5.432;2023-04-15T10:33:16;6.6;;;4.0;;
59653;SDS011;66556;52.008;5.432;2023-04-15T10:34:55;5.7;;;4.0;;
59653;SDS011;66556;52.008;5.432;2023-04-15T10:38:41;7.9;;;3.9;;
59653;SDS011;66556;52.008;5.432;2023-04-15T10:40:22;5.5;;;3.0;;
59653;SDS011;66556;52.008;5.432;2023-04-15T10:42:04;3.8;;;2.7;;
59653;SDS011;66556;52.008;5.432;2023-04-15T10:43:50;4.41;;;2.8;;
59653;SDS011;66556;52.008;5.432;2023-04-15T10:45:31;6.1;;;2.9;;
59653;SDS011;66556;52.008;5.432;2023-04-15T10:48:48;6.1;;;2.9;;
59653;SDS011;66556;52.008;5.432;2023-04-15T10:50:27;7.6;;;2.7;;
59653;SDS011;66556;52.008;5.432;2023-04-15T10:52:07;4.2;;;2.9;;
59653;SDS011;66556;52.008;5.432;2023-04-15T10:53:43;2.6;;;2.4;;
59653;SDS011;66556;52.008;5.432;2023-04-15T10:57:05;5.3;;;2.9;;
59653;SDS011;66556;52.008;5.432;2023-04-15T10:58:44;4.3;;;2.5;;
59653;SDS011;66556;52.008;5.432;2023-04-15T11:00:23;3.1;;;2.4;;
59653;SDS011;66556;52.008;5.432;2023-04-15T11:03:41;5.11;;;2.5;;
59653;SDS011;66556;52.008;5.432;2023-04-15T11:05:18;4.41;;;2.7;;
59653;SDS011;66556;52.008;5.432;2023-04-15T11:07:03;4.0;;;2.7;;
59653;SDS011;66556;52.008;5.432;2023-04-15T11:08:52;3.0;;;2.21;;
59653;SDS011;66556;52.008;5.432;2023-04-15T11:10:50;3.8;;;2.7;;
59653;SDS011;66556;52.008;5.432;2023-04-15T11:15:53;3.9;;;2.5;;
59653;SDS011;66556;52.008;5.432;2023-04-15T11:17:31;4.2;;;2.4;;
59653;SDS011;66556;52.008;5.432;2023-04-15T11:19:07;3.2;;;2.6;;
59653;SDS011;66556;52.008;5.432;2023-04-15T11:22:21;3.1;;;2.21;;
59653;SDS011;66556;52.008;5.432;2023-04-15T11:23:57;4.61;;;2.9;;
59653;SDS011;66556;52.008;5.432;2023-04-15T11:25:34;4.41;;;3.0;;
59653;SDS011;66556;52.008;5.432;2023-04-15T11:27:18;3.6;;;2.7;;
59653;SDS011;66556;52.008;5.432;2023-04-15T11:30:32;3.3;;;2.7;;
59653;SDS011;66556;52.008;5.432;2023-04-15T11:32:09;5.8;;;2.5;;
59653;SDS011;66556;52.008;5.432;2023-04-15T11:33:46;3.2;;;2.4;;
59653;SDS011;66556;52.008;5.432;2023-04-15T11:37:06;3.0;;;2.31;;
59653;SDS011;66556;52.008;5.432;2023-04-15T11:38:42;3.6;;;2.4;;
59653;SDS011;66556;52.008;5.432;2023-04-15T11:40:21;3.2;;;2.7;;
59653;SDS011;66556;52.008;5.432;2023-04-15T11:41:59;4.3;;;2.8;;
59653;SDS011;66556;52.008;5.432;2023-04-15T11:45:12;4.8;;;2.5;;
59653;SDS011;66556;52.008;5.432;2023-04-15T11:46:49;3.1;;;2.4;;
59653;SDS011;66556;52.008;5.432;2023-04-15T11:48:26;3.3;;;2.1;;
59653;SDS011;66556;52.008;5.432;2023-04-15T11:51:58;3.5;;;2.1;;
59653;SDS011;66556;52.008;5.432;2023-04-15T11:53:35;2.9;;;2.1;;
59653;SDS011;66556;52.008;5.432;2023-04-15T11:55:12;4.7;;;1.9;;
59653;SDS011;66556;52.008;5.432;2023-04-15T11:56:49;2.9;;;1.8;;
59653;SDS011;66556;52.008;5.432;2023-04-15T12:00:04;2.1;;;1.6;;
59653;SDS011;66556;52.008;5.432;2023-04-15T12:01:42;2.8;;;1.6;;
59653;SDS011;66556;52.008;5.432;2023-04-15T12:03:21;4.1;;;1.8;;
59653;SDS011;66556;52.008;5.432;2023-04-15T12:05:02;2.8;;;1.7;;
59653;SDS011;66556;52.008;5.432;2023-04-15T12:08:15;4.1;;;2.1;;
59653;SDS011;66556;52.008;5.432;2023-04-15T12:09:53;2.9;;;1.9;;
59653;SDS011;66556;52.008;5.432;2023-04-15T12:11:31;3.3;;;2.0;;
59653;SDS011;66556;52.008;5.432;2023-04-15T12:13:12;2.9;;;1.8;;
59653;SDS011;66556;52.008;5.432;2023-04-15T12:16:27;3.4;;;1.8;;
59653;SDS011;66556;52.008;5.432;2023-04-15T12:18:03;2.8;;;1.8;;
59653;SDS011;66556;52.008;5.432;2023-04-15T12:19:40;3.1;;;2.0;;
59653;SDS011;66556;52.008;5.432;2023-04-15T12:23:03;3.6;;;2.1;;
59653;SDS011;66556;52.008;5.432;2023-04-15T12:24:41;2.8;;;2.0;;
59653;SDS011;66556;52.008;5.432;2023-04-15T12:26:24;4.2;;;2.4;;
59653;SDS011;66556;52.008;5.432;2023-04-15T12:28:09;3.2;;;2.0;;
59653;SDS011;66556;52.008;5.432;2023-04-15T12:31:22;3.2;;;2.0;;
59653;SDS011;66556;52.008;5.432;2023-04-15T12:32:58;5.11;;;2.4;;
59653;SDS011;66556;52.008;5.432;2023-04-15T12:34:35;3.0;;;2.0;;
59653;SDS011;66556;52.008;5.432;2023-04-15T12:36:13;3.4;;;2.0;;
59653;SDS011;66556;52.008;5.432;2023-04-15T12:39:25;3.4;;;2.0;;
59653;SDS011;66556;52.008;5.432;2023-04-15T12:41:03;4.7;;;2.0;;
59653;SDS011;66556;52.008;5.432;2023-04-15T12:42:39;3.4;;;1.6;;
59653;SDS011;66556;52.008;5.432;2023-04-15T12:45:52;4.8;;;1.5;;
59653;SDS011;66556;52.008;5.432;2023-04-15T12:47:28;3.3;;;1.6;;
59653;SDS011;66556;52.008;5.432;2023-04-15T12:49:04;4.41;;;1.6;;
59653;SDS011;66556;52.008;5.432;2023-04-15T12:52:16;3.7;;;1.5;;
59653;SDS011;66556;52.008;5.432;2023-04-15T12:53:53;5.4;;;1.3;;
59653;SDS011;66556;52.008;5.432;2023-04-15T12:55:29;3.5;;;1.4;;